Terminal Aerodrome Forecast
Issued by NWS Twin Cities, MN

Home | Current Version | Previous Version | Graphics & Text | Print | Product List | Glossary On
Versions: 1 2 3 4 5 6 7 8 9 10 11 12 13 14 15 16 17 18 19 20 21 22 23 24 25 26
000
FTUS43 KMPX 032325
TAFMSP
TAF
KMSP 032325Z 0400/0506 29013G18KT P6SM FEW070
     FM040100 30007KT P6SM SKC
     FM040500 30003KT P6SM SKC
     FM041600 31008KT P6SM SCT060
     FM050100 VRB03KT P6SM SKC=

USA.gov is the U.S. government's official web portal to all federal, state and local government web resources and services.